createdAt,value
2022-07-29T00:11:33.628Z,24.10
2022-07-29T00:26:59.516Z,23.80
2022-07-29T00:42:25.550Z,23.80
2022-07-29T00:57:51.481Z,23.60
2022-07-29T01:13:17.773Z,23.50
2022-07-29T01:29:08.319Z,23.40
2022-07-29T01:44:39.797Z,23.30
2022-07-29T02:00:07.788Z,23.10
2022-07-29T02:15:34.796Z,23.10
2022-07-29T02:31:03.681Z,23.00
2022-07-29T02:46:33.315Z,22.90
2022-07-29T03:02:01.228Z,22.70
2022-07-29T03:17:27.785Z,22.50
2022-07-29T03:32:54.379Z,22.30
2022-07-29T03:48:27.492Z,22.10
2022-07-29T04:03:53.468Z,22.00
2022-07-29T04:19:19.344Z,21.80
2022-07-29T04:34:47.686Z,21.70
2022-07-29T04:50:14.011Z,21.60
2022-07-29T05:05:40.599Z,21.60
2022-07-29T05:21:06.628Z,21.70
2022-07-29T05:36:32.547Z,21.80
2022-07-29T05:51:58.773Z,21.90
2022-07-29T06:07:24.634Z,22.10
2022-07-29T06:22:50.382Z,22.50
2022-07-29T06:38:30.206Z,22.70
2022-07-29T06:54:02.974Z,22.80
2022-07-29T07:09:40.016Z,22.80
2022-07-29T07:25:06.937Z,22.90
2022-07-29T07:40:32.704Z,23.10
2022-07-29T07:56:13.912Z,23.40
2022-07-29T08:11:39.996Z,23.80
2022-07-29T08:27:41.823Z,24.40
2022-07-29T08:43:08.993Z,25.00
2022-07-29T08:58:37.190Z,25.50
2022-07-29T09:14:07.607Z,26.40
2022-07-29T09:29:36.246Z,27.50
2022-07-29T09:45:06.604Z,28.30
2022-07-29T10:00:44.901Z,28.80
2022-07-29T10:16:11.076Z,29.10
2022-07-29T10:31:46.356Z,29.30
2022-07-29T10:47:22.813Z,29.50
2022-07-29T11:02:54.440Z,29.90
2022-07-29T11:18:20.993Z,30.30
2022-07-29T11:33:56.371Z,30.70
2022-07-29T11:49:32.172Z,31.20
2022-07-29T12:05:11.985Z,32.00
2022-07-29T12:20:38.935Z,32.20
2022-07-29T12:36:12.854Z,33.00
2022-07-29T12:51:43.546Z,34.60
2022-07-29T13:07:10.603Z,34.40
2022-07-29T13:22:43.307Z,33.20
2022-07-29T13:38:08.938Z,32.30
2022-07-29T13:53:34.751Z,31.20
2022-07-29T14:09:00.665Z,29.00
2022-07-29T14:24:26.423Z,26.90
2022-07-29T14:39:52.087Z,26.00
2022-07-29T14:55:19.797Z,25.40
2022-07-29T15:10:45.943Z,25.00
2022-07-29T15:25:51.540Z,25.90
2022-07-29T15:40:57.103Z,28.90
2022-07-29T15:56:03.222Z,31.60
2022-07-29T16:11:09.428Z,31.80
2022-07-29T16:26:15.089Z,32.30
2022-07-29T16:41:20.718Z,32.50
2022-07-29T16:56:26.627Z,31.50
2022-07-29T17:11:51.990Z,30.30
2022-07-29T17:26:58.573Z,29.40
2022-07-29T17:42:05.008Z,28.60
2022-07-29T17:57:10.477Z,28.20
2022-07-29T18:12:16.347Z,27.50
2022-07-29T18:27:21.940Z,27.00
2022-07-29T18:42:28.377Z,26.90
2022-07-29T18:57:55.485Z,26.60
